San Francisco International Airport
KSFO : now visible

Airfield :











YOU CAN JOIN US ON...

 
LOGIN :

Register | Disclaimer

   EN    FR    IT 

 









Legend :    VFR   Marginal VFR   IFR   Intensive IFR   Very Intensive IFR
Visi :
Ceiling :
>= 8 km
>= 3000ft
5 to 8 km
1000 to 3000 ft
1500m to 5 km
500 to 1000 ft
800 to 1500m
200 to 500 ft
< 800m
< 200 ft
Symbols :   Thunderstorms  Fog  Heavy snow  Heavy precipitations  Wind > 20 kt






- Airport Elevation : 13 ft
- IATA code : SFO


KSFO - San Francisco International

CURRENT METAR :
  • 071956Z 03003KT 10SM FEW025 13/06 A3012 RMK AO2 SLP199 T01330061

EXPIRED METARs :
  • 071856Z 04004KT 10SM FEW025 12/07 A3013 RMK AO2 SLP204 T01170067
  • 071756Z 05004KT 10SM FEW015 11/07 A3014 RMK AO2 SLP206 T01110067 10117 20061 53011

TAF KSFO
Valid from the 07 at 18:00 until the 09 at 00:00 UTC


071722Z 0718/0824 36007KT P6SM FEW015 SCT040 SCT200
FM072000 28010KT P6SM FEW035 SCT200
FM072300 28015KT P6SM FEW035 SCT200
FM080600 27005KT P6SM SCT200
FM080800 VRB05KT P6SM FEW007 BKN015
FM082000 VRB04KT P6SM FEW010 BKN030 BKN050
FM082200 27008KT P6SM FEW030 BKN050



MET'MAP, your aeronautical weather chart ! - Copyright ORBIFLY December 2007 - Disclaimer

ORBIFLY MET'MAP TEAM :

Programming & Development : Alexandra Zaïnal
Concept & original design : Baudouin d'Aumeries
Assistance for programming : Marc-Olivier Méhu
Technical & hardware support : Manuel Goepfert

Contact : metmap@orbifly.com




SOURCES & CREDITS :

   NOAA       Earth
Advisory